createdAt,value
2022-12-02T00:01:18.019Z,30.05
2022-12-02T00:03:46.223Z,29.30
2022-12-02T00:06:31.414Z,29.73
2022-12-02T00:09:21.702Z,27.60
2022-12-02T00:11:48.993Z,24.40
2022-12-02T00:14:30.103Z,22.90
2022-12-02T00:16:57.475Z,23.13
2022-12-02T00:19:24.427Z,23.73
2022-12-02T00:21:52.224Z,23.85
2022-12-02T00:24:19.776Z,23.90
2022-12-02T00:26:47.135Z,24.63
2022-12-02T00:29:14.299Z,23.65
2022-12-02T00:31:41.350Z,24.38
2022-12-02T00:34:08.374Z,24.55
2022-12-02T00:36:35.203Z,22.63
2022-12-02T00:39:02.157Z,23.00
2022-12-02T00:41:29.094Z,22.75
2022-12-02T00:44:14.440Z,23.13
2022-12-02T00:46:41.228Z,23.00
2022-12-02T00:49:16.146Z,24.63
2022-12-02T00:51:44.011Z,22.13
2022-12-02T00:54:12.073Z,23.05
2022-12-02T00:56:39.291Z,21.25
2022-12-02T00:59:06.349Z,21.50
2022-12-02T01:01:35.589Z,21.17
2022-12-02T01:04:02.891Z,20.73
2022-12-02T01:06:29.684Z,21.52
2022-12-02T01:08:56.513Z,20.67
2022-12-02T01:11:23.445Z,23.25
2022-12-02T01:13:50.240Z,19.73
2022-12-02T01:16:17.253Z,20.83
2022-12-02T01:18:44.027Z,21.15
2022-12-02T01:21:10.785Z,22.35
2022-12-02T01:23:37.646Z,21.38
2022-12-02T01:26:04.492Z,23.52
2022-12-02T01:28:31.337Z,21.65
2022-12-02T01:30:58.100Z,21.60
2022-12-02T01:33:24.916Z,21.08
2022-12-02T01:35:51.692Z,21.60
2022-12-02T01:38:18.513Z,20.05
2022-12-02T01:40:45.682Z,21.58
2022-12-02T01:43:13.119Z,21.60
2022-12-02T01:45:40.439Z,22.77
2022-12-02T01:48:07.617Z,21.95
2022-12-02T01:50:34.798Z,22.58
2022-12-02T01:53:02.338Z,22.42
2022-12-02T01:55:29.729Z,21.65
2022-12-02T01:57:57.989Z,22.75
2022-12-02T02:00:25.707Z,22.48
2022-12-02T02:02:52.527Z,20.77
2022-12-02T02:05:21.331Z,21.60
2022-12-02T02:07:52.105Z,22.92
2022-12-02T02:10:20.631Z,21.77
2022-12-02T02:12:48.339Z,22.33
2022-12-02T02:15:16.583Z,21.08
2022-12-02T02:17:44.254Z,21.13
2022-12-02T02:20:14.358Z,21.45
2022-12-02T02:23:06.935Z,22.02
2022-12-02T02:25:41.070Z,21.02
2022-12-02T02:28:09.361Z,21.85
2022-12-02T02:30:37.544Z,21.05
2022-12-02T02:33:06.879Z,20.58
2022-12-02T02:35:35.739Z,19.85
2022-12-02T02:38:03.511Z,19.85
2022-12-02T02:40:31.670Z,20.75
2022-12-02T02:43:01.200Z,21.27
2022-12-02T02:45:31.041Z,20.27
2022-12-02T02:47:58.105Z,18.42
2022-12-02T02:50:25.762Z,20.33
2022-12-02T02:52:53.107Z,19.77
2022-12-02T02:55:24.264Z,20.88
2022-12-02T02:57:51.565Z,19.02
2022-12-02T03:00:20.720Z,21.27
2022-12-02T03:02:52.139Z,21.75
2022-12-02T03:05:20.279Z,21.73
2022-12-02T03:07:47.683Z,21.10
2022-12-02T03:10:15.031Z,20.30
2022-12-02T03:12:42.277Z,22.55
2022-12-02T03:15:09.970Z,23.80
2022-12-02T03:17:37.269Z,22.63
2022-12-02T03:20:05.278Z,21.90
2022-12-02T03:22:32.477Z,20.98
2022-12-02T03:24:59.395Z,23.35
2022-12-02T03:27:27.148Z,21.85
2022-12-02T03:29:54.005Z,22.67
2022-12-02T03:32:21.167Z,22.92
2022-12-02T03:34:48.171Z,21.98
2022-12-02T03:37:15.119Z,23.08
2022-12-02T03:39:41.939Z,21.35
2022-12-02T03:42:08.805Z,22.23
2022-12-02T03:44:36.315Z,21.05
2022-12-02T03:47:03.752Z,21.52
2022-12-02T03:49:33.681Z,22.20
2022-12-02T03:52:00.853Z,21.35
2022-12-02T03:54:27.951Z,21.77
2022-12-02T03:56:54.796Z,22.48
2022-12-02T03:59:27.186Z,22.38
2022-12-02T04:01:54.991Z,20.20
2022-12-02T04:04:22.052Z,23.23
2022-12-02T04:06:48.885Z,22.25
2022-12-02T04:09:15.685Z,21.50
2022-12-02T04:11:42.498Z,22.02
2022-12-02T04:14:09.328Z,23.38
2022-12-02T04:16:36.145Z,21.63
2022-12-02T04:19:02.949Z,21.77
2022-12-02T04:21:29.735Z,23.73
2022-12-02T04:23:56.523Z,23.75
2022-12-02T04:26:23.323Z,23.92
2022-12-02T04:28:50.089Z,25.00
2022-12-02T04:31:16.924Z,23.50
2022-12-02T04:33:43.749Z,24.13
2022-12-02T04:36:10.695Z,23.13
2022-12-02T04:38:37.490Z,23.15
2022-12-02T04:41:04.381Z,25.45
2022-12-02T04:43:31.160Z,23.38
2022-12-02T04:45:57.986Z,25.70
2022-12-02T04:48:24.790Z,25.05
2022-12-02T04:50:51.592Z,25.75
2022-12-02T04:53:18.408Z,24.98
2022-12-02T04:55:46.733Z,25.77
2022-12-02T04:58:14.207Z,24.65
2022-12-02T05:00:41.202Z,25.27
2022-12-02T05:03:08.393Z,24.80
2022-12-02T05:05:35.248Z,25.70
2022-12-02T05:08:02.038Z,26.02
2022-12-02T05:10:28.956Z,27.35
2022-12-02T05:12:55.738Z,26.83
2022-12-02T05:15:22.584Z,25.33
2022-12-02T05:17:49.417Z,26.23
2022-12-02T05:20:16.345Z,26.60
2022-12-02T05:22:43.206Z,26.77
2022-12-02T05:25:10.049Z,26.25
2022-12-02T05:27:36.855Z,27.35
2022-12-02T05:30:07.941Z,27.45
2022-12-02T05:32:34.959Z,27.73
2022-12-02T05:35:01.802Z,25.63
2022-12-02T05:37:28.576Z,27.08
2022-12-02T05:39:55.487Z,26.00
2022-12-02T05:42:22.273Z,27.10
2022-12-02T05:44:49.053Z,27.70
2022-12-02T05:47:17.641Z,29.20
2022-12-02T05:49:46.189Z,28.92
2022-12-02T05:52:24.845Z,29.23
2022-12-02T05:54:53.820Z,29.50
2022-12-02T05:57:30.521Z,29.23
2022-12-02T06:00:09.334Z,28.92
2022-12-02T06:02:41.246Z,27.63
2022-12-02T06:05:25.279Z,27.77
2022-12-02T06:07:55.237Z,28.60
2022-12-02T06:10:25.588Z,30.13
2022-12-02T06:12:54.920Z,29.05
2022-12-02T06:15:21.982Z,30.98
2022-12-02T06:17:48.948Z,29.60
2022-12-02T06:20:26.957Z,30.17
2022-12-02T06:22:54.216Z,30.55
2022-12-02T06:25:28.325Z,30.35
2022-12-02T06:28:00.198Z,30.88
2022-12-02T06:30:27.722Z,30.63
2022-12-02T06:32:58.564Z,29.77
2022-12-02T06:35:34.172Z,28.95
2022-12-02T06:38:03.613Z,29.65
2022-12-02T06:40:33.282Z,28.92
2022-12-02T06:43:02.256Z,30.00
2022-12-02T06:45:32.067Z,30.73
2022-12-02T06:48:03.611Z,41.85
2022-12-02T06:50:43.413Z,33.30
2022-12-02T06:53:37.083Z,30.70
2022-12-02T06:56:24.455Z,30.60
2022-12-02T06:59:00.915Z,30.42
2022-12-02T07:01:42.831Z,29.55
2022-12-02T07:04:09.603Z,30.40
2022-12-02T07:06:41.425Z,30.02
2022-12-02T07:09:18.330Z,29.00
2022-12-02T07:11:51.720Z,28.83
2022-12-02T07:17:00.161Z,27.98
2022-12-02T07:19:43.867Z,33.50
2022-12-02T07:22:24.029Z,30.63
2022-12-02T07:25:23.649Z,29.75
2022-12-02T07:27:51.823Z,31.10
2022-12-02T07:30:21.783Z,31.90
2022-12-02T07:32:48.752Z,31.80
2022-12-02T07:35:15.659Z,31.20
2022-12-02T07:37:42.480Z,31.08
2022-12-02T07:40:09.667Z,28.80
2022-12-02T07:42:36.502Z,33.33
2022-12-02T07:45:03.533Z,32.05
2022-12-02T07:47:32.139Z,32.03
2022-12-02T07:49:59.206Z,31.48
2022-12-02T07:52:26.021Z,33.00
2022-12-02T07:54:54.618Z,30.95
2022-12-02T07:57:22.262Z,30.88
2022-12-02T07:59:49.122Z,32.50
2022-12-02T08:02:15.968Z,31.88
2022-12-02T08:04:42.807Z,33.88
2022-12-02T08:07:09.757Z,32.22
2022-12-02T08:09:36.734Z,32.92
2022-12-02T08:12:03.793Z,33.33
2022-12-02T08:14:30.605Z,32.17
2022-12-02T08:16:57.688Z,35.33
2022-12-02T08:19:24.576Z,33.78
2022-12-02T08:21:52.941Z,32.22
2022-12-02T08:24:19.791Z,32.63
2022-12-02T08:26:46.911Z,31.05
2022-12-02T08:29:13.857Z,33.20
2022-12-02T08:31:40.721Z,35.45
2022-12-02T08:34:07.937Z,33.50
2022-12-02T08:36:34.895Z,35.50
2022-12-02T08:39:05.634Z,35.30
2022-12-02T08:41:37.431Z,34.80
2022-12-02T08:44:05.375Z,36.17
2022-12-02T08:46:32.776Z,35.03
2022-12-02T08:49:00.255Z,35.10
2022-12-02T08:51:27.350Z,33.47
2022-12-02T08:53:54.263Z,33.88
2022-12-02T08:56:21.237Z,32.22
2022-12-02T08:58:48.074Z,36.70
2022-12-02T09:01:14.975Z,34.13
2022-12-02T09:03:42.123Z,35.05
2022-12-02T09:06:08.986Z,35.22
2022-12-02T09:08:35.792Z,32.65
2022-12-02T09:11:02.958Z,32.10
2022-12-02T09:13:29.844Z,32.40
2022-12-02T09:15:56.775Z,28.90
2022-12-02T09:18:25.102Z,29.48
2022-12-02T09:20:51.909Z,28.05
2022-12-02T09:23:18.875Z,29.05
2022-12-02T09:25:45.770Z,26.95
2022-12-02T09:28:12.746Z,29.42
2022-12-02T09:30:40.011Z,29.85
2022-12-02T09:33:06.787Z,26.60
2022-12-02T09:35:33.640Z,25.05
2022-12-02T09:38:01.975Z,27.45
2022-12-02T09:40:29.027Z,25.00
2022-12-02T09:42:55.811Z,27.10
2022-12-02T09:45:22.639Z,27.55
2022-12-02T09:47:49.726Z,28.90
2022-12-02T09:50:17.395Z,29.33
2022-12-02T09:52:44.972Z,28.17
2022-12-02T09:55:17.716Z,25.38
2022-12-02T09:57:45.409Z,25.95
2022-12-02T10:00:18.529Z,24.90
2022-12-02T10:02:50.887Z,26.35
2022-12-02T10:05:29.203Z,25.73
2022-12-02T10:07:58.274Z,25.35
2022-12-02T10:10:28.500Z,23.77
2022-12-02T10:12:55.416Z,24.70
2022-12-02T10:15:27.188Z,25.60
2022-12-02T10:17:55.253Z,24.70
2022-12-02T10:20:25.924Z,24.85
2022-12-02T10:23:28.949Z,24.10
2022-12-02T10:26:13.927Z,23.58
2022-12-02T10:28:42.394Z,24.33
2022-12-02T10:31:14.884Z,25.05
2022-12-02T10:34:19.146Z,25.08
2022-12-02T10:54:43.330Z,28.67
2022-12-02T10:57:22.508Z,28.08
2022-12-02T10:59:49.889Z,28.73
2022-12-02T11:02:29.292Z,29.15
2022-12-02T11:04:56.214Z,32.25
2022-12-02T11:07:24.536Z,30.13
2022-12-02T11:09:54.567Z,32.67
2022-12-02T11:12:58.121Z,32.58
2022-12-02T11:15:43.959Z,33.03
2022-12-02T11:18:23.000Z,32.78
2022-12-02T11:20:57.218Z,33.63
2022-12-02T11:23:29.153Z,34.38
2022-12-02T11:26:03.079Z,33.33
2022-12-02T11:28:29.795Z,34.35
2022-12-02T11:31:12.298Z,35.55
2022-12-02T11:33:53.248Z,34.87
2022-12-02T11:36:22.965Z,35.30
2022-12-02T11:38:52.783Z,36.55
2022-12-02T11:41:22.158Z,34.60
2022-12-02T11:43:48.915Z,37.10
2022-12-02T11:46:20.830Z,36.60
2022-12-02T11:48:55.609Z,36.05
2022-12-02T11:51:37.682Z,37.03
2022-12-02T11:54:04.957Z,35.85
2022-12-02T11:56:39.558Z,37.28
2022-12-02T11:59:20.491Z,38.83
2022-12-02T12:01:48.789Z,39.40
2022-12-02T12:04:27.848Z,38.53
2022-12-02T12:06:59.624Z,39.08
2022-12-02T12:09:29.774Z,39.45
2022-12-02T12:12:16.759Z,36.53
2022-12-02T12:15:04.503Z,37.20
2022-12-02T12:17:51.588Z,35.95
2022-12-02T12:20:18.455Z,39.65
2022-12-02T12:22:45.247Z,38.45
2022-12-02T12:25:39.972Z,40.53
2022-12-02T12:28:23.810Z,41.22
2022-12-02T12:30:50.970Z,36.47
2022-12-02T12:33:17.733Z,38.42
2022-12-02T12:35:44.587Z,40.05
2022-12-02T12:38:11.443Z,38.70
2022-12-02T12:40:38.256Z,39.78
2022-12-02T12:43:05.148Z,38.88
2022-12-02T12:45:31.913Z,39.65
2022-12-02T12:47:59.034Z,38.30
2022-12-02T12:50:29.839Z,39.22
2022-12-02T12:52:57.183Z,38.75
2022-12-02T12:55:24.125Z,36.97
2022-12-02T12:57:50.918Z,37.00
2022-12-02T13:00:18.267Z,38.05
2022-12-02T13:02:45.150Z,36.83
2022-12-02T13:05:12.028Z,38.58
2022-12-02T13:07:38.957Z,37.17
2022-12-02T13:10:06.584Z,37.80
2022-12-02T13:12:33.418Z,38.80
2022-12-02T13:15:00.257Z,39.90
2022-12-02T13:17:27.102Z,37.03
2022-12-02T13:19:54.043Z,39.40
2022-12-02T13:22:20.908Z,39.72
2022-12-02T13:24:47.664Z,38.65
2022-12-02T13:27:14.460Z,37.05
2022-12-02T13:29:41.793Z,40.22
2022-12-02T13:32:08.732Z,40.42
2022-12-02T13:34:35.543Z,38.97
2022-12-02T13:37:02.459Z,39.08
2022-12-02T13:39:29.270Z,37.60
2022-12-02T13:41:56.081Z,38.58
2022-12-02T13:44:23.171Z,35.47
2022-12-02T13:46:50.112Z,38.65
2022-12-02T13:49:17.019Z,39.30
2022-12-02T13:51:43.836Z,38.55
2022-12-02T13:54:10.654Z,38.47
2022-12-02T13:56:37.408Z,39.70
2022-12-02T13:59:04.263Z,39.95
2022-12-02T14:01:31.111Z,38.72
2022-12-02T14:03:58.091Z,40.15
2022-12-02T14:06:24.975Z,39.75
2022-12-02T14:08:51.843Z,40.05
2022-12-02T14:11:21.641Z,41.85
2022-12-02T14:13:49.399Z,39.63
2022-12-02T14:16:16.430Z,39.97
2022-12-02T14:18:43.307Z,41.05
2022-12-02T14:21:10.081Z,40.05
2022-12-02T14:23:36.983Z,38.88
2022-12-02T14:26:03.886Z,38.50
2022-12-02T14:28:30.746Z,38.05
2022-12-02T14:30:57.745Z,39.28
2022-12-02T14:33:25.414Z,38.67
2022-12-02T14:35:58.835Z,35.55
2022-12-02T14:38:25.975Z,36.13
2022-12-02T14:40:53.159Z,36.83
2022-12-02T14:43:20.027Z,35.85
2022-12-02T14:45:46.987Z,35.80
2022-12-02T14:48:14.281Z,34.53
2022-12-02T14:50:41.114Z,35.78
2022-12-02T14:53:08.008Z,33.70
2022-12-02T14:55:34.877Z,35.83
2022-12-02T14:58:01.893Z,33.47
2022-12-02T15:00:28.761Z,34.10
2022-12-02T15:02:55.728Z,34.88
2022-12-02T15:05:23.014Z,33.05
2022-12-02T15:07:50.238Z,36.30
2022-12-02T15:10:17.481Z,34.88
2022-12-02T15:12:44.461Z,33.88
2022-12-02T15:15:36.707Z,34.90
2022-12-02T15:17:58.756Z,31.73
2022-12-02T15:20:26.691Z,33.95
2022-12-02T15:22:54.050Z,34.03
2022-12-02T15:25:21.169Z,33.08
2022-12-02T15:27:48.031Z,34.03
2022-12-02T15:30:15.211Z,32.95
2022-12-02T15:32:42.133Z,33.88
2022-12-02T15:35:09.861Z,32.03
2022-12-02T15:37:36.824Z,33.20
2022-12-02T15:40:04.213Z,33.05
2022-12-02T15:42:31.072Z,31.88
2022-12-02T15:44:57.883Z,34.67
2022-12-02T15:47:24.766Z,32.70
2022-12-02T15:49:51.605Z,31.92
2022-12-02T15:52:18.500Z,34.88
2022-12-02T15:54:45.738Z,33.58
2022-12-02T15:57:12.773Z,32.80
2022-12-02T15:59:39.649Z,33.30
2022-12-02T16:02:06.719Z,31.58
2022-12-02T16:04:34.147Z,30.40
2022-12-02T16:07:00.969Z,33.10
2022-12-02T16:09:27.900Z,32.20
2022-12-02T16:11:54.862Z,32.13
2022-12-02T16:14:21.694Z,33.97
2022-12-02T16:16:48.587Z,31.67
2022-12-02T16:19:15.487Z,31.75
2022-12-02T16:21:42.860Z,32.22
2022-12-02T16:24:09.656Z,29.35
2022-12-02T16:26:36.575Z,30.00
2022-12-02T16:29:03.411Z,29.60
2022-12-02T16:31:30.276Z,27.63
2022-12-02T16:33:57.267Z,27.70
2022-12-02T16:36:24.473Z,29.13
2022-12-02T16:38:51.506Z,28.50
2022-12-02T16:41:18.288Z,25.00
2022-12-02T16:43:45.180Z,26.20
2022-12-02T16:46:12.097Z,26.48
2022-12-02T16:48:39.079Z,27.55
2022-12-02T16:51:06.034Z,25.55
2022-12-02T16:53:32.861Z,25.48
2022-12-02T16:55:59.698Z,27.05
2022-12-02T16:58:26.508Z,25.15
2022-12-02T17:00:53.457Z,26.35
2022-12-02T17:03:20.324Z,26.38
2022-12-02T17:05:47.221Z,26.75
2022-12-02T17:08:14.179Z,27.55
2022-12-02T17:10:41.123Z,27.02
2022-12-02T17:13:07.920Z,28.02
2022-12-02T17:15:34.906Z,28.63
2022-12-02T17:18:01.771Z,28.15
2022-12-02T17:20:28.662Z,28.13
2022-12-02T17:22:55.559Z,27.52
2022-12-02T17:25:22.391Z,28.10
2022-12-02T17:27:49.307Z,25.75
2022-12-02T17:30:16.370Z,26.80
2022-12-02T17:32:43.169Z,27.48
2022-12-02T17:35:10.073Z,24.77
2022-12-02T17:37:37.043Z,24.77
2022-12-02T17:40:04.222Z,25.70
2022-12-02T17:42:31.310Z,26.20
2022-12-02T17:44:58.214Z,26.15
2022-12-02T17:47:25.033Z,26.48
2022-12-02T17:49:51.880Z,28.40
2022-12-02T17:52:20.589Z,27.92
2022-12-02T17:54:48.248Z,26.08
2022-12-02T17:57:15.918Z,27.83
2022-12-02T17:59:42.870Z,26.60
2022-12-02T18:02:11.025Z,25.63
2022-12-02T18:04:38.274Z,26.50
2022-12-02T18:07:10.012Z,26.80
2022-12-02T18:09:38.863Z,25.60
2022-12-02T18:12:15.660Z,26.75
2022-12-02T18:14:42.616Z,25.75
2022-12-02T18:17:09.555Z,25.25
2022-12-02T18:19:36.415Z,24.85
2022-12-02T18:22:03.239Z,25.55
2022-12-02T18:24:30.071Z,24.67
2022-12-02T18:26:57.637Z,23.45
2022-12-02T18:29:24.501Z,25.00
2022-12-02T18:31:51.408Z,23.67
2022-12-02T18:34:18.283Z,22.95
2022-12-02T18:36:45.199Z,22.27
2022-12-02T18:39:12.105Z,22.70
2022-12-02T18:41:38.947Z,21.92
2022-12-02T18:44:05.813Z,21.75
2022-12-02T18:46:32.765Z,20.98
2022-12-02T18:49:00.096Z,19.30
2022-12-02T18:51:27.244Z,20.95
2022-12-02T18:53:54.489Z,19.15
2022-12-02T18:56:24.341Z,20.17
2022-12-02T18:58:53.515Z,19.35
2022-12-02T19:01:20.761Z,19.88
2022-12-02T19:03:47.875Z,18.73
2022-12-02T19:06:14.704Z,19.00
2022-12-02T19:08:41.625Z,21.08
2022-12-02T19:11:09.404Z,19.52
2022-12-02T19:13:36.604Z,20.40
2022-12-02T19:16:03.903Z,20.02
2022-12-02T19:18:31.380Z,20.52
2022-12-02T19:20:58.315Z,21.38
2022-12-02T19:23:25.311Z,18.83
2022-12-02T19:25:52.130Z,19.20
2022-12-02T19:28:19.250Z,20.23
2022-12-02T19:30:46.118Z,19.75
2022-12-02T19:33:13.247Z,17.80
2022-12-02T19:35:40.105Z,18.02
2022-12-02T19:38:11.851Z,17.95
2022-12-02T19:43:16.087Z,18.17
2022-12-02T19:45:43.642Z,17.25
2022-12-02T19:48:10.806Z,17.70
2022-12-02T19:50:37.631Z,17.67
2022-12-02T19:53:04.553Z,18.15
2022-12-02T19:55:31.617Z,16.05
2022-12-02T19:57:58.560Z,16.52
2022-12-02T20:00:25.497Z,18.27
2022-12-02T20:02:52.432Z,19.00
2022-12-02T20:05:23.866Z,17.30
2022-12-02T20:07:51.239Z,18.17
2022-12-02T20:10:18.588Z,17.60
2022-12-02T20:12:45.848Z,18.42
2022-12-02T20:15:13.981Z,17.52
2022-12-02T20:17:41.029Z,18.50
2022-12-02T20:20:09.956Z,17.50
2022-12-02T20:22:37.056Z,18.40
2022-12-02T20:25:04.109Z,18.73
2022-12-02T20:27:31.265Z,17.85
2022-12-02T20:29:58.134Z,19.90
2022-12-02T20:32:25.114Z,22.27
2022-12-02T20:34:52.389Z,17.08
2022-12-02T20:37:19.732Z,17.58
2022-12-02T20:39:46.766Z,18.92
2022-12-02T20:42:13.625Z,17.70
2022-12-02T20:44:42.412Z,18.80
2022-12-02T20:47:09.627Z,18.80
2022-12-02T20:49:36.522Z,16.92
2022-12-02T20:52:03.458Z,17.25
2022-12-02T20:54:30.357Z,16.50
2022-12-02T20:56:57.813Z,16.50
2022-12-02T20:59:24.647Z,17.45
2022-12-02T21:01:51.679Z,17.00
2022-12-02T21:04:18.635Z,16.38
2022-12-02T21:06:45.491Z,17.65
2022-12-02T21:09:12.483Z,18.02
2022-12-02T21:11:39.383Z,18.98
2022-12-02T21:14:06.210Z,18.75
2022-12-02T21:16:34.243Z,18.52
2022-12-02T21:19:01.165Z,17.02
2022-12-02T21:21:28.009Z,18.30
2022-12-02T21:24:01.686Z,18.30
2022-12-02T21:26:30.913Z,18.10
2022-12-02T21:28:57.819Z,18.83
2022-12-02T21:31:27.555Z,19.23
2022-12-02T21:33:54.517Z,18.35
2022-12-02T21:36:21.428Z,18.98
2022-12-02T21:38:48.372Z,18.98
2022-12-02T21:41:15.206Z,19.90
2022-12-02T21:43:41.986Z,18.40
2022-12-02T21:46:09.144Z,18.58
2022-12-02T21:48:36.018Z,19.70
2022-12-02T21:51:02.858Z,19.30
2022-12-02T21:53:29.681Z,18.77
2022-12-02T21:55:56.608Z,18.88
2022-12-02T21:58:25.448Z,18.80
2022-12-02T22:01:15.369Z,19.98
2022-12-02T22:03:43.703Z,20.02
2022-12-02T22:06:10.736Z,17.80
2022-12-02T22:08:37.615Z,19.38
2022-12-02T22:11:04.419Z,19.60
2022-12-02T22:13:31.259Z,19.25
2022-12-02T22:15:58.110Z,18.73
2022-12-02T22:18:25.058Z,20.02
2022-12-02T22:20:52.048Z,19.73
2022-12-02T22:23:19.003Z,19.73
2022-12-02T22:25:45.857Z,18.67
2022-12-02T22:28:13.767Z,19.77
2022-12-02T22:30:40.706Z,19.38
2022-12-02T22:33:07.521Z,18.88
2022-12-02T22:35:34.335Z,20.52
2022-12-02T22:38:01.204Z,20.00
2022-12-02T22:40:28.176Z,20.73
2022-12-02T22:42:55.128Z,19.48
2022-12-02T22:45:21.980Z,19.10
2022-12-02T22:47:48.959Z,19.80
2022-12-02T22:50:15.939Z,19.88
2022-12-02T22:52:42.758Z,19.38
2022-12-02T22:55:10.165Z,18.17
2022-12-02T22:57:37.004Z,18.40
2022-12-02T23:00:07.597Z,19.65
2022-12-02T23:02:34.754Z,19.30
2022-12-02T23:05:01.759Z,18.55
2022-12-02T23:07:28.606Z,18.98
2022-12-02T23:09:55.456Z,19.08
2022-12-02T23:12:22.358Z,20.13
2022-12-02T23:14:49.128Z,20.75
2022-12-02T23:17:19.445Z,19.88
2022-12-02T23:19:46.314Z,20.02
2022-12-02T23:22:15.714Z,19.02
2022-12-02T23:24:42.653Z,19.85
2022-12-02T23:27:09.445Z,18.80
2022-12-02T23:29:36.578Z,19.88
2022-12-02T23:32:03.576Z,18.77
2022-12-02T23:34:30.494Z,17.50
2022-12-02T23:36:57.300Z,20.30
2022-12-02T23:39:24.089Z,19.35
2022-12-02T23:41:54.323Z,21.45
2022-12-02T23:44:23.157Z,19.60
2022-12-02T23:46:50.085Z,20.13
2022-12-02T23:49:16.928Z,19.40
2022-12-02T23:51:43.807Z,20.80
2022-12-02T23:54:10.654Z,20.98
2022-12-02T23:56:37.474Z,21.50
2022-12-02T23:59:04.279Z,21.23
